Time;durP1;ratioP1;P1;durP2;ratioP2;P2;SDS_P1;SDS_P2;PMS_P1;PMS_P2;Temp;Humidity;BMP_temperature;BMP_pressure;BME280_temperature;BME280_humidity;BME280_pressure;Samples;Min_cycle;Max_cycle;Signal;HPM_P1;HPM_P2
2023/09/19 00:00:49;;;;;;;0.57;0.50;;;17.40;1.00;;;;;;4972687;28;20165;-87
2023/09/19 00:03:15;;;;;;;1.50;0.60;;;17.30;1.00;;;;;;4973225;28;20181;-88
2023/09/19 00:05:44;;;;;;;1.73;0.85;;;17.30;1.00;;;;;;4973145;28;20204;-87
2023/09/19 00:08:10;;;;;;;1.02;0.60;;;17.30;1.00;;;;;;4957200;28;20754;-88
2023/09/19 00:10:36;;;;;;;0.80;0.50;;;17.30;1.00;;;;;;4957354;28;20279;-87
2023/09/19 00:13:05;;;;;;;2.05;0.55;;;17.20;1.00;;;;;;4957044;28;20216;-87
2023/09/19 00:15:36;;;;;;;3.45;0.82;;;17.10;1.00;;;;;;4956880;28;20214;-89
2023/09/19 00:18:02;;;;;;;1.88;0.80;;;17.10;1.00;;;;;;4974614;28;20180;-87
2023/09/19 00:20:29;;;;;;;1.58;0.60;;;17.10;1.00;;;;;;4957098;28;20212;-86
2023/09/19 00:22:55;;;;;;;0.90;0.55;;;17.10;1.00;;;;;;4957020;28;20216;-88
2023/09/19 00:25:21;;;;;;;1.23;0.68;;;17.10;1.00;;;;;;4956874;28;20305;-88
2023/09/19 00:27:51;;;;;;;1.77;0.90;;;17.00;1.00;;;;;;4957183;28;20196;-88
2023/09/19 00:30:20;;;;;;;1.83;0.50;;;17.00;1.00;;;;;;4956854;28;20189;-87
2023/09/19 00:32:47;;;;;;;0.90;0.60;;;17.00;99.90;;;;;;4974196;28;20180;-87
2023/09/19 00:35:16;;;;;;;1.08;0.70;;;17.00;1.00;;;;;;4956543;28;20208;-88
2023/09/19 00:37:43;;;;;;;2.13;0.70;;;17.10;1.00;;;;;;4974018;28;20208;-87
2023/09/19 00:40:12;;;;;;;1.60;0.65;;;17.10;1.00;;;;;;4973984;28;20208;-87
2023/09/19 00:42:42;;;;;;;1.52;0.60;;;17.10;99.90;;;;;;4956542;28;20272;-87
2023/09/19 00:45:11;;;;;;;1.23;0.70;;;17.00;99.90;;;;;;4956309;28;20213;-87
2023/09/19 00:47:43;;;;;;;1.15;0.70;;;17.00;99.90;;;;;;4956530;28;20192;-87
2023/09/19 00:50:10;;;;;;;0.60;0.60;;;17.00;99.90;;;;;;4972672;28;20189;-88
2023/09/19 00:52:38;;;;;;;1.75;0.60;;;17.00;1.00;;;;;;4956105;28;20197;-85
2023/09/19 00:55:05;;;;;;;1.67;0.70;;;17.00;99.90;;;;;;4956780;28;20220;-87
2023/09/19 00:57:32;;;;;;;1.92;0.77;;;17.00;99.90;;;;;;4974183;28;20205;-86
2023/09/19 00:59:59;;;;;;;1.50;0.70;;;17.00;1.00;;;;;;4958238;28;20181;-86
2023/09/19 01:02:27;;;;;;;0.60;0.60;;;16.80;99.90;;;;;;4976131;28;20669;-86
2023/09/19 01:04:53;;;;;;;0.90;0.60;;;16.70;99.90;;;;;;4964853;28;20204;-88
2023/09/19 01:07:21;;;;;;;1.70;0.80;;;16.70;1.00;;;;;;4958415;28;20276;-87
2023/09/19 01:09:46;;;;;;;2.15;0.77;;;16.60;1.00;;;;;;4958144;28;20181;-87
2023/09/19 01:12:22;;;;;;;1.10;0.70;;;16.70;1.00;;;;;;4958758;28;20253;-87
2023/09/19 01:15:04;;;;;;;0.85;0.75;;;16.70;1.00;;;;;;4958471;28;20263;-87
2023/09/19 01:17:45;;;;;;;1.65;0.70;;;16.60;1.00;;;;;;4973150;28;20299;-87
2023/09/19 01:20:47;;;;;;;3.38;0.75;;;16.60;1.00;;;;;;4945391;28;20283;-87
2023/09/19 01:23:29;;;;;;;1.15;0.50;;;16.60;1.00;;;;;;4945441;28;20192;-87
2023/09/19 01:26:16;;;;;;;2.80;0.80;;;16.60;1.00;;;;;;4958330;28;20191;-85
2023/09/19 01:29:01;;;;;;;1.20;0.80;;;16.60;1.00;;;;;;4955625;28;20271;-88
2023/09/19 01:31:33;;;;;;;2.60;0.73;;;16.70;1.00;;;;;;4958102;28;20181;-87
2023/09/19 01:34:01;;;;;;;1.67;0.77;;;16.70;1.00;;;;;;4957887;28;20200;-86
2023/09/19 01:36:36;;;;;;;1.25;0.85;;;16.70;1.00;;;;;;4957408;28;20546;-87
2023/09/19 01:39:10;;;;;;;1.08;0.70;;;16.70;1.00;;;;;;4974821;28;20579;-87
2023/09/19 01:41:57;;;;;;;0.68;0.68;;;16.70;1.00;;;;;;4972472;28;20199;-87
2023/09/19 01:44:51;;;;;;;1.60;0.80;;;16.60;1.00;;;;;;4955263;28;20212;-87
2023/09/19 01:47:27;;;;;;;0.73;0.68;;;16.60;1.00;;;;;;4945842;28;20224;-87
2023/09/19 01:50:23;;;;;;;1.63;0.82;;;16.60;1.00;;;;;;4974700;28;20181;-86
2023/09/19 01:53:05;;;;;;;2.38;1.15;;;16.60;1.00;;;;;;4957425;28;20231;-86
2023/09/19 01:55:36;;;;;;;1.75;0.88;;;16.50;1.00;;;;;;4957395;28;20236;-87
2023/09/19 01:58:08;;;;;;;1.92;0.90;;;16.60;1.00;;;;;;4957854;28;20759;-87
2023/09/19 02:00:37;;;;;;;1.80;0.90;;;16.50;1.00;;;;;;4973877;28;20177;-87
2023/09/19 02:03:03;;;;;;;1.92;1.05;;;16.50;1.00;;;;;;4973614;28;20169;-87
2023/09/19 02:05:30;;;;;;;1.80;1.02;;;16.60;1.00;;;;;;4956993;28;20201;-87
2023/09/19 02:07:56;;;;;;;1.85;1.08;;;16.60;1.00;;;;;;4957311;28;20200;-87
2023/09/19 02:10:23;;;;;;;2.28;1.13;;;16.60;1.00;;;;;;4957109;28;20181;-87
2023/09/19 02:12:49;;;;;;;1.90;1.20;;;16.50;1.00;;;;;;4956689;28;20181;-87
2023/09/19 02:15:15;;;;;;;2.10;1.17;;;16.50;1.00;;;;;;4956700;28;20227;-87
2023/09/19 02:17:43;;;;;;;2.22;1.10;;;16.50;1.00;;;;;;4956857;28;20196;-87
2023/09/19 02:20:10;;;;;;;2.80;1.10;;;16.40;1.00;;;;;;4957084;28;20658;-87
2023/09/19 02:22:35;;;;;;;1.95;1.17;;;16.50;1.00;;;;;;4974090;28;20256;-87
2023/09/19 02:25:01;;;;;;;2.05;1.20;;;16.50;1.00;;;;;;4956867;28;20353;-87
2023/09/19 02:27:27;;;;;;;1.40;1.05;;;16.50;1.00;;;;;;4956796;28;20185;-87
2023/09/19 02:29:53;;;;;;;1.73;1.15;;;16.50;1.00;;;;;;4961315;28;20196;-87
2023/09/19 02:32:18;;;;;;;2.20;1.17;;;16.50;1.00;;;;;;4978478;28;20645;-87
2023/09/19 02:34:44;;;;;;;1.83;1.17;;;16.50;1.00;;;;;;4978034;28;20213;-86
2023/09/19 02:37:10;;;;;;;2.45;1.10;;;16.50;1.00;;;;;;4977982;28;20189;-87
2023/09/19 02:39:36;;;;;;;2.25;1.27;;;16.40;1.00;;;;;;4959764;28;20208;-87
2023/09/19 02:42:03;;;;;;;2.28;1.30;;;16.30;1.00;;;;;;4960400;28;20260;-89
2023/09/19 02:44:30;;;;;;;1.23;0.93;;;16.30;1.00;;;;;;4960119;28;20215;-87
2023/09/19 02:46:57;;;;;;;1.08;0.90;;;16.40;1.00;;;;;;4959189;28;20189;-88
2023/09/19 02:49:23;;;;;;;1.55;1.15;;;16.40;1.00;;;;;;4975058;28;20276;-88
2023/09/19 02:51:49;;;;;;;3.20;1.17;;;16.40;1.00;;;;;;4955082;28;20193;-88
2023/09/19 02:54:15;;;;;;;2.72;1.30;;;16.40;1.00;;;;;;4956807;28;20267;-87
2023/09/19 02:56:41;;;;;;;2.38;1.17;;;16.40;1.00;;;;;;4960492;28;20193;-87
2023/09/19 02:59:07;;;;;;;1.30;1.02;;;16.30;1.00;;;;;;4970500;28;20184;-87
2023/09/19 03:01:33;;;;;;;2.13;1.30;;;16.30;1.00;;;;;;4960538;28;20185;-87
2023/09/19 03:03:59;;;;;;;3.23;1.30;;;16.30;1.00;;;;;;4958372;28;20419;-86
2023/09/19 03:06:25;;;;;;;3.00;1.35;;;16.30;1.00;;;;;;4978062;28;20416;-86
2023/09/19 03:08:51;;;;;;;2.10;1.30;;;16.30;1.00;;;;;;4960993;28;20279;-86
2023/09/19 03:11:21;;;;;;;3.13;1.40;;;16.30;1.00;;;;;;4961194;28;20275;-87
2023/09/19 03:13:52;;;;;;;1.50;1.13;;;16.20;1.00;;;;;;4961532;28;20243;-86
2023/09/19 03:16:18;;;;;;;3.28;1.35;;;16.30;1.00;;;;;;4961524;28;20248;-87
2023/09/19 03:18:45;;;;;;;2.60;1.50;;;16.30;1.00;;;;;;4961123;28;20183;-87
2023/09/19 03:21:10;;;;;;;1.42;1.23;;;16.30;1.00;;;;;;4960645;28;20177;-87
2023/09/19 03:23:36;;;;;;;2.38;1.60;;;16.20;1.00;;;;;;4960328;28;20187;-86
2023/09/19 03:26:04;;;;;;;2.85;1.70;;;16.10;1.00;;;;;;4960895;28;20212;-87
2023/09/19 03:28:33;;;;;;;2.05;1.42;;;16.10;1.00;;;;;;4960075;28;20181;-87
2023/09/19 03:31:00;;;;;;;3.45;1.38;;;16.20;1.00;;;;;;4959779;28;20189;-86
2023/09/19 03:33:26;;;;;;;2.45;1.60;;;16.20;1.00;;;;;;4960934;28;20193;-87
2023/09/19 03:35:53;;;;;;;1.65;1.38;;;16.20;1.00;;;;;;4977295;28;20236;-88
2023/09/19 03:38:19;;;;;;;2.58;1.33;;;16.10;1.00;;;;;;4977731;28;20677;-86
2023/09/19 03:40:45;;;;;;;3.70;1.65;;;16.20;1.00;;;;;;4977603;28;20189;-86
2023/09/19 03:43:10;;;;;;;2.83;1.65;;;16.00;1.00;;;;;;4960205;28;20181;-87
2023/09/19 03:45:36;;;;;;;2.13;1.40;;;16.10;1.00;;;;;;4959360;28;20703;-86
2023/09/19 03:48:11;;;;;;;2.05;1.50;;;16.10;1.00;;;;;;4977142;28;20179;-88
2023/09/19 03:50:36;;;;;;;1.58;1.48;;;16.00;1.00;;;;;;4960734;28;20168;-88
2023/09/19 03:53:03;;;;;;;3.20;1.75;;;16.10;1.00;;;;;;4960106;28;20268;-89
2023/09/19 03:55:30;;;;;;;4.50;1.70;;;16.10;1.00;;;;;;4976827;28;20676;-87
2023/09/19 03:57:56;;;;;;;2.67;1.73;;;16.00;1.00;;;;;;4975527;28;20248;-87
2023/09/19 04:00:24;;;;;;;2.10;1.63;;;16.00;1.00;;;;;;4959996;28;20556;-87
2023/09/19 04:02:51;;;;;;;1.95;1.50;;;16.00;1.00;;;;;;4959756;28;20189;-87
2023/09/19 04:05:17;;;;;;;2.55;1.90;;;16.00;1.00;;;;;;4959512;28;20313;-87
2023/09/19 04:07:43;;;;;;;3.55;1.58;;;16.00;1.00;;;;;;4959638;28;20177;-88
2023/09/19 04:10:11;;;;;;;3.03;1.67;;;15.80;1.00;;;;;;4959884;28;20188;-87
2023/09/19 04:12:37;;;;;;;3.33;1.98;;;15.90;1.00;;;;;;4977493;28;20188;-89
2023/09/19 04:15:03;;;;;;;2.85;1.73;;;15.90;1.00;;;;;;4959678;28;20595;-87
2023/09/19 04:17:28;;;;;;;2.03;1.80;;;15.90;1.00;;;;;;4977954;28;20673;-86
2023/09/19 04:19:54;;;;;;;2.47;1.57;;;16.00;1.00;;;;;;4959663;28;20425;-86
2023/09/19 04:22:20;;;;;;;2.35;1.80;;;15.90;1.00;;;;;;4959573;28;20185;-86
2023/09/19 04:24:45;;;;;;;2.17;1.95;;;15.90;99.90;;;;;;4959042;28;20213;-86
2023/09/19 04:27:14;;;;;;;4.75;2.00;;;16.00;1.00;;;;;;4959676;28;20185;-87
2023/09/19 04:29:41;;;;;;;3.55;2.03;;;16.00;99.90;;;;;;4963323;28;20184;-86
2023/09/19 04:32:07;;;;;;;2.38;2.10;;;16.10;99.90;;;;;;4962582;28;20177;-87
2023/09/19 04:34:35;;;;;;;6.45;2.50;;;16.10;99.90;;;;;;4979985;28;20655;-87
2023/09/19 04:37:01;;;;;;;1.75;1.55;;;16.10;99.90;;;;;;4962484;28;20711;-87
2023/09/19 04:39:28;;;;;;;3.80;1.88;;;16.20;99.90;;;;;;4979143;28;20196;-87
2023/09/19 04:41:54;;;;;;;2.33;1.77;;;16.10;99.90;;;;;;4962898;28;20187;-87
2023/09/19 04:44:23;;;;;;;3.78;2.20;;;16.10;99.90;;;;;;4962685;28;20205;-86
2023/09/19 04:46:49;;;;;;;3.38;2.10;;;16.10;99.90;;;;;;4979323;28;20183;-87
2023/09/19 04:49:14;;;;;;;4.10;1.90;;;16.00;99.90;;;;;;4980206;28;20300;-87
2023/09/19 04:51:40;;;;;;;3.78;1.92;;;16.00;99.90;;;;;;4962831;28;20189;-87
2023/09/19 04:54:19;;;;;;;2.70;1.95;;;15.90;99.90;;;;;;4962392;28;20723;-88
2023/09/19 04:56:44;;;;;;;3.95;2.05;;;15.80;99.90;;;;;;4962989;28;20207;-86
2023/09/19 04:59:10;;;;;;;3.97;1.98;;;15.90;99.90;;;;;;4963142;28;20193;-86
2023/09/19 05:01:36;;;;;;;2.72;2.03;;;15.80;99.90;;;;;;4961698;28;20295;-89
2023/09/19 05:04:04;;;;;;;2.92;2.30;;;15.80;99.90;;;;;;4957434;28;20201;-88
2023/09/19 05:06:30;;;;;;;2.75;1.95;;;15.70;99.90;;;;;;4957235;28;20188;-88
2023/09/19 05:08:56;;;;;;;2.95;2.40;;;15.70;99.90;;;;;;4957540;28;20189;-89
2023/09/19 05:11:22;;;;;;;2.35;1.92;;;15.80;99.90;;;;;;4957695;28;20325;-89
2023/09/19 05:13:52;;;;;;;5.53;2.83;;;15.70;99.90;;;;;;4956664;28;20197;-88
2023/09/19 05:16:18;;;;;;;5.57;2.30;;;15.70;99.90;;;;;;4953834;28;20209;-87
2023/09/19 05:18:43;;;;;;;3.63;2.20;;;15.70;99.90;;;;;;4957886;28;20184;-88
2023/09/19 05:21:09;;;;;;;2.83;2.15;;;15.70;99.90;;;;;;4957260;28;20616;-88
2023/09/19 05:23:36;;;;;;;3.30;2.10;;;15.60;99.90;;;;;;4956805;28;20185;-88
2023/09/19 05:26:03;;;;;;;3.58;1.85;;;15.80;99.90;;;;;;4956758;28;20189;-88
2023/09/19 05:28:29;;;;;;;4.38;2.40;;;15.80;99.90;;;;;;4974043;28;20260;-88
2023/09/19 05:31:03;;;;;;;4.28;2.40;;;15.90;99.90;;;;;;4957001;28;20271;-89
2023/09/19 05:33:31;;;;;;;4.55;2.30;;;15.90;93.90;;;;;;4970241;28;20564;-87
2023/09/19 05:35:59;;;;;;;3.83;2.47;;;15.90;96.20;;;;;;4956287;28;20215;-88
2023/09/19 05:38:26;;;;;;;4.88;2.10;;;15.80;69.80;;;;;;4972982;28;20177;-88
2023/09/19 05:40:52;;;;;;;2.75;2.45;;;15.70;16.60;;;;;;4974268;28;20197;-88
2023/09/19 05:43:18;;;;;;;2.75;2.05;;;15.70;84.00;;;;;;4957917;28;20204;-86
2023/09/19 05:45:45;;;;;;;4.55;2.17;;;15.80;34.30;;;;;;4957114;28;20197;-86
2023/09/19 05:48:15;;;;;;;3.08;2.22;;;15.80;23.30;;;;;;4974554;28;20177;-86
2023/09/19 05:50:42;;;;;;;3.53;2.25;;;15.80;14.20;;;;;;4974474;28;20173;-84
2023/09/19 05:53:14;;;;;;;3.65;2.55;;;15.70;16.60;;;;;;4973808;28;20272;-85
2023/09/19 05:55:40;;;;;;;5.40;2.40;;;15.80;16.10;;;;;;4974245;28;20197;-86
2023/09/19 05:58:06;;;;;;;4.10;2.53;;;15.80;1.00;;;;;;4956627;28;20189;-85
2023/09/19 06:00:32;;;;;;;3.42;2.60;;;15.80;1.00;;;;;;4974063;28;20181;-84
2023/09/19 06:02:59;;;;;;;9.32;3.08;;;15.80;1.00;;;;;;4972733;28;20181;-87
2023/09/19 06:05:32;;;;;;;4.75;2.58;;;15.70;1.00;;;;;;4955710;28;20716;-84
2023/09/19 06:08:00;;;;;;;4.72;2.65;;;15.60;1.00;;;;;;4956417;28;20192;-85
2023/09/19 06:10:28;;;;;;;5.57;2.88;;;15.60;1.00;;;;;;4974868;28;20208;-86
2023/09/19 06:12:55;;;;;;;5.15;2.92;;;15.50;1.00;;;;;;4975070;28;20228;-86
2023/09/19 06:15:22;;;;;;;6.57;2.58;;;15.40;1.00;;;;;;4955237;28;20240;-86
2023/09/19 06:17:59;;;;;;;4.25;2.13;;;15.40;1.00;;;;;;4951578;28;20216;-85
2023/09/19 06:20:28;;;;;;;3.78;2.78;;;15.40;1.00;;;;;;4956573;28;20199;-85
2023/09/19 06:22:54;;;;;;;5.32;2.58;;;15.40;1.00;;;;;;4957910;28;20193;-86
2023/09/19 06:25:20;;;;;;;6.72;3.03;;;15.50;1.00;;;;;;4955654;28;20220;-85
2023/09/19 06:27:47;;;;;;;3.65;2.50;;;15.40;1.00;;;;;;4955465;28;20204;-85
2023/09/19 06:30:13;;;;;;;5.95;2.63;;;15.40;1.00;;;;;;4955852;28;20201;-87
2023/09/19 06:32:40;;;;;;;5.45;1.98;;;15.40;1.00;;;;;;4974267;28;20557;-87
2023/09/19 06:35:10;;;;;;;5.85;2.10;;;15.40;1.00;;;;;;4973494;28;20200;-86
2023/09/19 06:37:40;;;;;;;6.30;2.58;;;15.40;1.00;;;;;;4960179;28;20217;-85
2023/09/19 06:40:14;;;;;;;6.07;2.60;;;15.40;1.00;;;;;;4956973;28;20586;-87
2023/09/19 06:43:06;;;;;;;5.28;2.30;;;15.50;1.00;;;;;;4956263;28;20177;-87
2023/09/19 06:45:32;;;;;;;3.63;2.08;;;15.50;1.00;;;;;;4969463;28;20244;-84
2023/09/19 06:47:59;;;;;;;5.00;2.50;;;15.50;1.00;;;;;;4956274;28;20695;-89
2023/09/19 06:50:25;;;;;;;6.78;2.20;;;15.60;1.00;;;;;;4976506;28;20267;-88
2023/09/19 06:52:53;;;;;;;4.18;2.08;;;15.60;1.00;;;;;;4958661;28;20255;-86
2023/09/19 06:55:20;;;;;;;6.60;2.45;;;15.70;1.00;;;;;;4957863;28;20211;-86
2023/09/19 06:57:46;;;;;;;5.43;2.28;;;15.70;1.00;;;;;;4973496;28;20311;-85
2023/09/19 07:00:18;;;;;;;8.82;2.63;;;15.80;1.00;;;;;;4954617;28;21762;-87
2023/09/19 07:03:11;;;;;;;7.53;2.40;;;15.90;1.00;;;;;;4956575;28;20212;-87
2023/09/19 07:05:38;;;;;;;5.78;2.10;;;16.00;1.00;;;;;;4958668;28;20205;-86
2023/09/19 07:08:09;;;;;;;4.05;1.88;;;16.10;1.00;;;;;;4974238;28;20181;-87
2023/09/19 07:10:35;;;;;;;6.25;1.92;;;16.10;1.00;;;;;;4974353;28;20653;-86
2023/09/19 07:13:02;;;;;;;4.82;2.25;;;16.20;1.00;;;;;;4974509;28;20236;-85
2023/09/19 07:15:30;;;;;;;4.20;2.20;;;16.20;99.90;;;;;;4970459;28;20567;-86
2023/09/19 07:17:56;;;;;;;5.40;1.80;;;16.20;99.90;;;;;;4956886;28;20249;-85
2023/09/19 07:20:26;;;;;;;6.38;1.92;;;16.30;99.90;;;;;;4972561;28;20208;-86
2023/09/19 07:22:52;;;;;;;5.93;1.83;;;16.30;99.90;;;;;;4955117;28;20205;-86
2023/09/19 07:25:18;;;;;;;7.35;2.28;;;16.40;99.90;;;;;;4954567;28;20233;-85
2023/09/19 07:27:44;;;;;;;5.70;2.03;;;16.30;99.90;;;;;;4964813;28;20185;-84
2023/09/19 07:30:11;;;;;;;6.35;2.22;;;16.30;99.90;;;;;;4953445;28;20681;-85
2023/09/19 07:32:38;;;;;;;6.90;2.35;;;16.30;99.90;;;;;;4952357;28;20279;-85
2023/09/19 07:35:05;;;;;;;8.18;2.35;;;16.30;99.90;;;;;;4952168;28;20623;-86
2023/09/19 07:37:33;;;;;;;8.35;2.40;;;16.30;99.90;;;;;;4974724;28;20200;-86
2023/09/19 07:40:00;;;;;;;5.38;2.15;;;16.30;99.90;;;;;;4952597;28;20247;-86
2023/09/19 07:42:29;;;;;;;10.10;2.35;;;16.40;99.90;;;;;;4953205;28;20595;-88
2023/09/19 07:44:55;;;;;;;7.13;2.55;;;16.30;99.90;;;;;;4957868;28;20328;-85
2023/09/19 07:47:21;;;;;;;6.15;2.22;;;16.50;99.90;;;;;;4956644;28;21186;-88
2023/09/19 07:49:47;;;;;;;7.68;2.08;;;16.40;99.90;;;;;;4972896;28;20196;-88
2023/09/19 07:52:13;;;;;;;7.32;2.45;;;16.50;99.90;;;;;;4954644;28;20188;-89
2023/09/19 07:54:41;;;;;;;4.40;2.10;;;16.50;99.90;;;;;;4950763;28;20207;-89
2023/09/19 07:57:07;;;;;;;8.27;2.15;;;16.60;99.90;;;;;;4951890;28;20226;-88
2023/09/19 07:59:38;;;;;;;5.85;2.17;;;16.60;99.90;;;;;;4957514;28;20670;-88
2023/09/19 08:02:05;;;;;;;3.25;1.52;;;16.60;99.90;;;;;;4958516;28;20193;-88
2023/09/19 08:04:32;;;;;;;7.20;2.10;;;16.70;99.90;;;;;;4957287;28;20239;-87
2023/09/19 08:07:00;;;;;;;7.20;1.98;;;16.60;99.90;;;;;;4960502;28;20193;-87
2023/09/19 08:09:26;;;;;;;6.57;2.10;;;16.70;99.90;;;;;;4978216;28;20190;-88
2023/09/19 08:11:52;;;;;;;6.13;2.10;;;16.70;99.90;;;;;;4959983;28;20181;-87
2023/09/19 08:14:17;;;;;;;7.47;2.20;;;16.80;99.90;;;;;;4957993;28;20211;-87
2023/09/19 08:16:43;;;;;;;6.60;2.20;;;16.80;99.90;;;;;;4961594;28;20729;-89
2023/09/19 08:19:10;;;;;;;5.40;2.05;;;16.80;99.90;;;;;;4958975;28;20188;-88
2023/09/19 08:21:36;;;;;;;4.43;1.88;;;16.80;99.90;;;;;;4959070;28;20239;-88
2023/09/19 08:24:05;;;;;;;6.65;2.00;;;16.80;99.90;;;;;;4958623;28;20264;-89
2023/09/19 08:26:31;;;;;;;9.93;2.55;;;16.60;99.90;;;;;;4974194;28;20189;-85
2023/09/19 08:28:57;;;;;;;6.57;2.05;;;16.60;99.90;;;;;;4957891;28;20222;-89
2023/09/19 08:31:23;;;;;;;5.72;2.10;;;16.60;99.90;;;;;;4974441;28;20188;-89
2023/09/19 08:33:51;;;;;;;6.28;2.10;;;16.60;99.90;;;;;;4954953;28;20704;-88
2023/09/19 08:36:17;;;;;;;4.63;1.90;;;16.70;99.90;;;;;;4955010;28;20220;-88
2023/09/19 08:38:42;;;;;;;5.47;2.08;;;16.70;99.90;;;;;;4971134;28;20185;-88
2023/09/19 08:41:08;;;;;;;5.32;1.85;;;16.80;99.90;;;;;;4954000;28;20185;-89
2023/09/19 08:43:35;;;;;;;8.48;2.13;;;16.90;99.90;;;;;;4966324;28;20218;-88
2023/09/19 08:46:19;;;;;;;9.02;2.22;;;16.90;99.90;;;;;;4953526;28;20219;-87
2023/09/19 08:49:05;;;;;;;4.05;1.75;;;16.90;99.90;;;;;;4951830;28;20204;-85
2023/09/19 08:51:44;;;;;;;8.35;2.72;;;17.00;99.90;;;;;;4955224;28;20193;-89
2023/09/19 08:54:19;;;;;;;6.43;1.90;;;17.00;99.90;;;;;;4954483;28;20216;-88
2023/09/19 08:56:47;;;;;;;7.32;1.75;;;17.10;99.90;;;;;;4970130;28;20899;-89
2023/09/19 08:59:14;;;;;;;9.27;2.60;;;17.00;99.90;;;;;;4954881;28;20276;-88
2023/09/19 09:01:41;;;;;;;5.40;1.92;;;17.10;99.90;;;;;;4969889;28;20208;-88
2023/09/19 09:04:09;;;;;;;4.30;1.80;;;17.10;99.90;;;;;;4971940;28;20387;-87
2023/09/19 09:06:36;;;;;;;6.53;1.50;;;17.30;99.90;;;;;;4972208;28;20185;-89
2023/09/19 09:09:05;;;;;;;5.93;1.90;;;17.30;99.90;;;;;;4954136;28;20193;-88
2023/09/19 09:11:33;;;;;;;6.45;1.80;;;17.50;99.90;;;;;;4952122;28;20181;-87
2023/09/19 09:13:59;;;;;;;5.72;1.40;;;17.30;99.90;;;;;;4953826;28;20257;-85
2023/09/19 09:16:25;;;;;;;5.35;2.08;;;17.40;99.90;;;;;;4955802;28;20248;-89
2023/09/19 09:18:52;;;;;;;7.38;2.17;;;17.40;99.90;;;;;;4957084;28;20189;-87
2023/09/19 09:21:18;;;;;;;5.38;1.55;;;17.50;99.90;;;;;;4972973;28;20272;-87
2023/09/19 09:23:44;;;;;;;6.22;1.92;;;17.60;99.90;;;;;;4955113;28;20214;-87
2023/09/19 09:26:10;;;;;;;6.32;1.80;;;17.60;99.90;;;;;;4955741;28;20389;-90
2023/09/19 09:28:45;;;;;;;7.60;1.88;;;17.70;99.90;;;;;;4956085;28;20563;-87
2023/09/19 09:31:24;;;;;;;3.50;1.45;;;17.60;87.40;;;;;;4973733;28;20195;-86
2023/09/19 09:33:55;;;;;;;6.30;1.80;;;17.60;55.40;;;;;;4956824;28;20237;-90
2023/09/19 09:36:36;;;;;;;5.38;1.88;;;17.60;47.10;;;;;;4955077;28;20212;-88
2023/09/19 09:39:15;;;;;;;3.40;1.50;;;17.60;43.90;;;;;;4953991;28;20255;-88
2023/09/19 09:41:42;;;;;;;5.45;1.70;;;17.70;48.40;;;;;;4953442;28;20259;-87
2023/09/19 09:44:19;;;;;;;3.60;1.50;;;17.80;40.30;;;;;;4954994;28;20207;-88
2023/09/19 09:47:27;;;;;;;8.20;1.45;;;17.80;33.20;;;;;;4955244;28;20188;-89
2023/09/19 09:52:07;;;;;;;4.38;1.63;;;17.80;11.60;;;;;;4973637;28;20272;-89
2023/09/19 09:54:36;;;;;;;6.68;1.73;;;17.70;9.30;;;;;;4950014;28;20200;-89
2023/09/19 09:57:13;;;;;;;4.88;1.48;;;17.80;11.40;;;;;;4954477;28;20224;-88
2023/09/19 09:59:49;;;;;;;4.00;1.70;;;17.80;7.50;;;;;;4954060;28;20184;-90
2023/09/19 10:02:28;;;;;;;6.95;1.73;;;17.80;10.40;;;;;;4961529;28;20659;-88
2023/09/19 10:05:09;;;;;;;3.65;1.60;;;17.80;4.20;;;;;;4968309;28;20299;-88
2023/09/19 10:07:38;;;;;;;4.07;1.60;;;17.80;10.80;;;;;;4953620;28;20184;-87
2023/09/19 10:10:15;;;;;;;3.83;1.80;;;17.90;1.50;;;;;;4952118;28;20233;-87
2023/09/19 10:12:46;;;;;;;4.50;1.52;;;17.90;9.00;;;;;;4953654;28;20214;-89
2023/09/19 10:15:15;;;;;;;5.78;1.92;;;17.90;1.00;;;;;;4954392;28;20316;-88
2023/09/19 10:17:46;;;;;;;5.57;1.73;;;17.80;1.00;;;;;;4972629;28;20204;-89
2023/09/19 10:20:38;;;;;;;4.32;1.65;;;17.90;1.00;;;;;;4929725;28;20240;-91
2023/09/19 10:23:12;;;;;;;5.28;1.67;;;18.00;1.00;;;;;;4970575;28;20196;-90
2023/09/19 10:25:42;;;;;;;4.60;1.75;;;18.10;1.00;;;;;;4953445;28;20235;-89
2023/09/19 10:28:14;;;;;;;4.88;1.65;;;18.20;1.00;;;;;;4955671;28;20193;-89
2023/09/19 10:30:47;;;;;;;7.53;2.10;;;18.20;1.00;;;;;;4955290;28;20185;-88
2023/09/19 10:33:14;;;;;;;4.18;1.55;;;18.20;1.00;;;;;;4954939;28;20201;-91
2023/09/19 10:35:46;;;;;;;6.07;2.15;;;18.20;1.00;;;;;;4974669;28;20232;-90
2023/09/19 10:38:14;;;;;;;5.55;1.90;;;18.20;1.00;;;;;;4953881;28;20192;-90
2023/09/19 10:40:43;;;;;;;4.47;1.60;;;18.30;1.00;;;;;;4952909;28;20742;-89
2023/09/19 10:43:19;;;;;;;8.27;2.20;;;18.30;1.00;;;;;;4952733;28;20185;-89
2023/09/19 10:45:49;;;;;;;5.88;2.10;;;18.30;1.00;;;;;;4958090;28;20216;-88
2023/09/19 10:48:19;;;;;;;5.43;1.95;;;18.50;1.00;;;;;;4968764;28;20641;-88
2023/09/19 10:51:09;;;;;;;5.43;1.88;;;18.50;1.00;;;;;;4969956;28;20181;-87
2023/09/19 10:53:52;;;;;;;3.92;1.73;;;18.40;1.00;;;;;;4969369;28;20276;-89
2023/09/19 10:56:25;;;;;;;4.15;1.75;;;18.40;1.00;;;;;;4953094;28;20244;-87
2023/09/19 10:58:51;;;;;;;4.05;1.90;;;18.40;1.00;;;;;;4949408;28;20196;-88
2023/09/19 11:01:17;;;;;;;7.32;2.63;;;18.50;1.00;;;;;;4952810;28;20196;-88
2023/09/19 11:03:43;;;;;;;5.32;2.13;;;18.40;1.00;;;;;;4953750;28;20187;-87
2023/09/19 11:06:10;;;;;;;5.00;2.17;;;18.50;1.00;;;;;;4967128;28;20201;-87
2023/09/19 11:09:15;;;;;;;9.18;2.30;;;18.40;1.00;;;;;;4953450;28;20746;-89
2023/09/19 11:11:52;;;;;;;3.75;1.80;;;18.50;1.00;;;;;;4952614;28;20451;-88
2023/09/19 11:14:24;;;;;;;4.28;1.55;;;18.60;1.00;;;;;;4953228;28;20208;-86
2023/09/19 11:17:11;;;;;;;5.55;1.90;;;18.60;1.00;;;;;;4953210;28;20201;-87
2023/09/19 11:22:50;;;;;;;4.10;1.70;;;18.90;1.00;;;;;;4923363;28;20180;-89
2023/09/19 11:28:06;;;;;;;6.32;2.42;;;18.80;1.00;;;;;;4969890;28;20623;-87
2023/09/19 11:30:36;;;;;;;3.97;1.65;;;18.80;1.00;;;;;;4969772;28;20223;-87
2023/09/19 11:33:23;;;;;;;5.45;1.75;;;18.90;1.00;;;;;;4953824;28;20192;-86
2023/09/19 11:36:06;;;;;;;4.72;2.22;;;18.90;1.00;;;;;;4968239;28;20250;-90
2023/09/19 11:38:52;;;;;;;4.93;2.17;;;18.80;1.00;;;;;;4955478;28;20189;-89
2023/09/19 11:41:21;;;;;;;6.18;2.00;;;18.90;1.00;;;;;;4951107;28;20193;-89
2023/09/19 11:44:09;;;;;;;3.88;1.60;;;18.90;1.00;;;;;;4954678;28;20197;-88
2023/09/19 11:46:53;;;;;;;8.13;2.22;;;18.80;1.00;;;;;;4949369;28;20219;-89
2023/09/19 11:49:26;;;;;;;4.60;1.92;;;18.80;1.00;;;;;;4948463;28;20243;-88
2023/09/19 11:51:55;;;;;;;5.00;2.45;;;18.90;1.00;;;;;;4957837;28;20219;-91
2023/09/19 11:54:31;;;;;;;4.88;1.92;;;18.90;1.00;;;;;;4954097;28;20216;-89
2023/09/19 11:56:58;;;;;;;6.80;2.22;;;18.90;1.00;;;;;;4954792;28;20208;-89
2023/09/19 11:59:29;;;;;;;4.95;2.30;;;18.90;1.00;;;;;;4951589;28;20652;-89
2023/09/19 12:01:59;;;;;;;4.82;2.03;;;19.00;1.00;;;;;;4952298;28;20192;-89
2023/09/19 12:04:49;;;;;;;8.35;2.30;;;18.90;1.00;;;;;;4972797;28;20200;-88
2023/09/19 12:07:19;;;;;;;4.95;1.83;;;18.90;1.00;;;;;;4961719;28;20199;-89
2023/09/19 12:09:51;;;;;;;5.20;2.20;;;19.00;1.00;;;;;;4960855;28;20192;-87
2023/09/19 12:12:27;;;;;;;5.35;1.80;;;19.00;1.00;;;;;;4961208;28;20308;-87
2023/09/19 12:14:55;;;;;;;6.03;1.98;;;19.00;1.00;;;;;;4953509;28;20575;-88
2023/09/19 12:17:24;;;;;;;3.80;1.80;;;19.10;1.00;;;;;;4954171;28;20248;-91
2023/09/19 12:19:56;;;;;;;6.10;2.08;;;19.10;1.00;;;;;;4953725;28;20184;-88
2023/09/19 12:22:22;;;;;;;5.05;2.03;;;19.10;1.00;;;;;;4956972;28;20676;-86
2023/09/19 12:24:48;;;;;;;6.05;1.90;;;19.10;1.00;;;;;;4952936;28;20264;-88
2023/09/19 12:27:14;;;;;;;6.40;1.80;;;19.00;1.00;;;;;;4930260;28;20194;-89
2023/09/19 12:29:45;;;;;;;5.18;2.05;;;19.00;1.00;;;;;;4954150;28;20604;-89
2023/09/19 12:32:11;;;;;;;6.22;2.05;;;19.00;1.00;;;;;;4954164;28;20185;-89
2023/09/19 12:34:42;;;;;;;6.70;3.15;;;18.90;1.00;;;;;;4952530;28;20700;-90
2023/09/19 12:37:21;;;;;;;5.40;1.90;;;18.90;1.00;;;;;;4952327;28;20221;-89
2023/09/19 12:39:54;;;;;;;3.97;1.80;;;18.90;1.00;;;;;;4950852;28;20197;-90
2023/09/19 12:42:21;;;;;;;4.05;2.03;;;18.90;1.00;;;;;;4977712;28;20557;-87
2023/09/19 12:44:55;;;;;;;5.03;2.33;;;19.00;1.00;;;;;;4954426;28;20212;-89
2023/09/19 12:47:23;;;;;;;6.28;1.92;;;19.10;1.00;;;;;;4963411;28;20185;-90
2023/09/19 12:50:13;;;;;;;6.32;2.08;;;19.20;1.00;;;;;;4960149;28;20195;-90
2023/09/19 12:52:48;;;;;;;6.70;2.20;;;19.50;1.00;;;;;;4961174;28;20177;-89
2023/09/19 12:55:35;;;;;;;4.15;1.90;;;19.50;1.00;;;;;;4971163;28;20714;-91
2023/09/19 12:58:15;;;;;;;4.85;1.75;;;19.40;1.00;;;;;;4975396;28;20208;-89
2023/09/19 13:00:44;;;;;;;5.40;2.17;;;19.30;1.00;;;;;;4956194;28;20601;-89
2023/09/19 13:03:15;;;;;;;4.80;2.05;;;19.40;1.00;;;;;;4957044;28;20559;-88
2023/09/19 13:06:09;;;;;;;5.10;2.38;;;19.40;1.00;;;;;;4955631;28;20200;-89
2023/09/19 13:09:09;;;;;;;3.88;2.30;;;19.40;1.00;;;;;;4953361;28;20324;-90
2023/09/19 13:15:29;;;;;;;3.15;1.75;;;19.50;1.00;;;;;;4904421;29;20248;-89
2023/09/19 13:18:02;;;;;;;6.07;2.30;;;19.50;1.00;;;;;;4904337;29;20269;-87
2023/09/19 13:20:28;;;;;;;4.82;2.17;;;19.50;1.00;;;;;;4889016;29;20183;-89